createdAt,value
2018-01-08T00:00:37.021Z,1006.83
2018-01-08T00:01:47.268Z,1006.8
2018-01-08T00:02:57.331Z,1006.84
2018-01-08T00:04:07.127Z,1006.83
2018-01-08T00:05:17.206Z,1006.87
2018-01-08T00:06:28.733Z,1006.81
2018-01-08T00:07:38.842Z,1006.81
2018-01-08T00:08:48.882Z,1006.82
2018-01-08T00:09:58.956Z,1006.84
2018-01-08T00:11:08.485Z,1006.82
2018-01-08T00:12:18.543Z,1006.79
2018-01-08T00:13:28.360Z,1006.81
2018-01-08T00:14:38.406Z,1006.78
2018-01-08T00:15:48.454Z,1006.76
2018-01-08T00:16:58.249Z,1006.76
2018-01-08T00:18:08.044Z,1006.74
2018-01-08T00:19:17.843Z,1006.76
2018-01-08T00:20:27.646Z,1006.81
2018-01-08T00:21:37.711Z,1006.84
2018-01-08T00:22:47.772Z,1006.82
2018-01-08T00:23:57.298Z,1006.86
2018-01-08T00:25:07.371Z,1006.88
2018-01-08T00:26:17.416Z,1006.89
2018-01-08T00:27:26.681Z,1006.89
2018-01-08T00:28:36.749Z,1006.89
2018-01-08T00:29:46.866Z,1006.9
2018-01-08T00:30:56.960Z,1006.97
2018-01-08T00:32:07.030Z,1006.95
2018-01-08T00:33:17.066Z,1006.96
2018-01-08T00:34:27.117Z,1006.99
2018-01-08T00:35:36.902Z,1006.94
2018-01-08T00:36:47.007Z,1006.96
2018-01-08T00:37:57.075Z,1006.99
2018-01-08T00:39:06.624Z,1006.97
2018-01-08T00:40:16.685Z,1007
2018-01-08T00:41:26.208Z,1007.01
2018-01-08T00:42:36.260Z,1006.99
2018-01-08T00:43:46.052Z,1007.03
2018-01-08T00:44:56.098Z,1007
2018-01-08T00:46:05.896Z,1007.03
2018-01-08T00:47:15.698Z,1007.08
2018-01-08T00:48:25.859Z,1007.06
2018-01-08T00:49:35.920Z,1007.1
2018-01-08T00:50:45.971Z,1007.08
2018-01-08T00:51:55.523Z,1007.1
2018-01-08T00:53:05.586Z,1007.16
2018-01-08T00:54:15.657Z,1007.19
2018-01-08T00:55:25.708Z,1007.12
2018-01-08T00:56:35.506Z,1007.11
2018-01-08T00:57:45.573Z,1007.07
2018-01-08T00:58:55.358Z,1007.05
2018-01-08T01:00:04.947Z,1007.11
2018-01-08T01:01:15.027Z,1007.06
2018-01-08T01:02:25.135Z,1007.09
2018-01-08T01:03:34.940Z,1007.05
2018-01-08T01:04:44.733Z,1007.1
2018-01-08T01:05:54.584Z,1007.05
2018-01-08T01:07:04.123Z,1007.07
2018-01-08T01:08:14.169Z,1007.03
2018-01-08T01:09:23.704Z,1007.04
2018-01-08T01:10:33.752Z,1007.05
2018-01-08T01:11:43.555Z,1007.09
2018-01-08T01:12:53.532Z,1007.03
2018-01-08T01:14:04.193Z,1007.08
2018-01-08T01:15:14.250Z,1007.05
2018-01-08T01:16:24.292Z,1007.03
2018-01-08T01:17:34.354Z,1007.06
2018-01-08T01:18:44.408Z,1007.07
2018-01-08T01:19:54.196Z,1007.06
2018-01-08T01:21:04.248Z,1007.04
2018-01-08T01:22:14.329Z,1007.03
2018-01-08T01:23:24.169Z,1007.05
2018-01-08T01:24:33.953Z,1006.97
2018-01-08T01:25:44.015Z,1006.97
2018-01-08T01:26:53.816Z,1006.93
2018-01-08T01:28:03.886Z,1006.92
2018-01-08T01:29:13.742Z,1006.89
2018-01-08T01:30:23.783Z,1006.88
2018-01-08T01:31:33.583Z,1006.9
2018-01-08T01:32:43.382Z,1006.89
2018-01-08T01:33:53.440Z,1006.93
2018-01-08T01:35:03.278Z,1006.85
2018-01-08T01:36:13.343Z,1006.91
2018-01-08T01:37:23.404Z,1006.89
2018-01-08T01:38:33.468Z,1006.88
2018-01-08T01:39:43.600Z,1006.92
2018-01-08T01:40:53.383Z,1006.93
2018-01-08T01:42:03.173Z,1006.95
2018-01-08T01:43:13.231Z,1006.94
2018-01-08T01:44:23.017Z,1006.9
2018-01-08T01:45:33.074Z,1006.89
2018-01-08T01:46:43.136Z,1006.83
2018-01-08T01:47:52.910Z,1006.81
2018-01-08T01:49:02.955Z,1006.84
2018-01-08T01:50:13.009Z,1006.8
2018-01-08T01:51:22.803Z,1006.82
2018-01-08T01:52:32.910Z,1006.78
2018-01-08T01:53:42.947Z,1006.77
2018-01-08T01:54:52.729Z,1006.78
2018-01-08T01:56:02.282Z,1006.77
2018-01-08T01:57:12.342Z,1006.78
2018-01-08T01:58:22.142Z,1006.76
2018-01-08T01:59:32.205Z,1006.77
2018-01-08T02:00:41.997Z,1006.77
2018-01-08T02:01:51.547Z,1006.79
2018-01-08T02:03:01.610Z,1006.81
2018-01-08T02:04:11.715Z,1006.81
2018-01-08T02:05:21.781Z,1006.79
2018-01-08T02:06:31.888Z,1006.81
2018-01-08T02:07:41.939Z,1006.78
2018-01-08T02:08:51.751Z,1006.81
2018-01-08T02:10:01.869Z,1006.76
2018-01-08T02:11:11.933Z,1006.84
2018-01-08T02:12:21.740Z,1006.86
2018-01-08T02:13:31.786Z,1006.86
2018-01-08T02:14:41.570Z,1006.81
2018-01-08T02:15:51.635Z,1006.82
2018-01-08T02:17:01.439Z,1006.79
2018-01-08T02:18:11.269Z,1006.77
2018-01-08T02:19:21.058Z,1006.81
2018-01-08T02:20:30.843Z,1006.81
2018-01-08T02:21:40.910Z,1006.79
2018-01-08T02:22:51.061Z,1006.82
2018-01-08T02:24:01.102Z,1006.83
2018-01-08T02:25:11.164Z,1006.86
2018-01-08T02:26:20.996Z,1006.8
2018-01-08T02:27:31.036Z,1006.84
2018-01-08T02:28:41.114Z,1006.84
2018-01-08T02:29:50.646Z,1006.81
2018-01-08T02:31:00.458Z,1006.8
2018-01-08T02:32:10.507Z,1006.83
2018-01-08T02:33:20.566Z,1006.84
2018-01-08T02:34:30.641Z,1006.85
2018-01-08T02:35:40.874Z,1006.87
2018-01-08T02:36:50.683Z,1006.89
2018-01-08T02:38:00.813Z,1006.87
2018-01-08T02:39:10.985Z,1006.9
2018-01-08T02:40:20.789Z,1006.89
2018-01-08T02:41:30.838Z,1006.91
2018-01-08T02:42:40.898Z,1006.88
2018-01-08T02:43:50.955Z,1006.92
2018-01-08T02:45:00.854Z,1006.92
2018-01-08T02:46:10.660Z,1006.92
2018-01-08T02:47:20.708Z,1006.92
2018-01-08T02:48:32.877Z,1006.85
2018-01-08T02:49:42.932Z,1006.81
2018-01-08T02:50:52.842Z,1006.79
2018-01-08T02:52:02.914Z,1006.83
2018-01-08T02:53:12.969Z,1006.85
2018-01-08T02:54:22.501Z,1006.83
2018-01-08T02:55:32.579Z,1006.88
2018-01-08T02:56:42.702Z,1006.91
2018-01-08T02:57:52.753Z,1006.9
2018-01-08T02:59:02.566Z,1006.91
2018-01-08T03:00:12.629Z,1006.92
2018-01-08T03:01:23.245Z,1006.93
2018-01-08T03:02:33.315Z,1006.97
2018-01-08T03:34:24.675Z,1006.9
2018-01-08T03:35:34.451Z,1006.89
2018-01-08T03:36:44.255Z,1006.86
2018-01-08T03:37:54.350Z,1006.89
2018-01-08T03:39:04.406Z,1006.89
2018-01-08T03:40:14.498Z,1006.94
2018-01-08T03:41:24.560Z,1006.96
2018-01-08T03:42:34.362Z,1006.99
2018-01-08T03:43:44.432Z,1006.94
2018-01-08T03:44:53.961Z,1006.92
2018-01-08T03:46:04.036Z,1006.9
2018-01-08T03:47:14.090Z,1006.9
2018-01-08T03:48:24.152Z,1006.93
2018-01-08T03:49:34.215Z,1006.95
2018-01-08T03:50:44.077Z,1006.94
2018-01-08T03:51:54.141Z,1007.01
2018-01-08T03:53:04.209Z,1006.96
2018-01-08T03:54:14.255Z,1006.96
2018-01-08T03:55:24.320Z,1006.98
2018-01-08T03:56:34.121Z,1006.99
2018-01-08T03:57:43.972Z,1007.01
2018-01-08T03:58:54.027Z,1007.01
2018-01-08T04:00:04.067Z,1007.03
2018-01-08T04:01:13.850Z,1007.01
2018-01-08T04:02:23.918Z,1006.98
2018-01-08T04:03:33.964Z,1006.92
2018-01-08T04:04:44.069Z,1006.91
2018-01-08T04:05:53.870Z,1006.89
2018-01-08T04:07:03.926Z,1006.83
2018-01-08T04:08:14.241Z,1006.85
2018-01-08T04:09:25.280Z,1006.85
2018-01-08T04:10:35.328Z,1006.87
2018-01-08T04:11:45.130Z,1006.92
2018-01-08T04:12:55.188Z,1006.92
2018-01-08T04:14:05.296Z,1006.96
2018-01-08T04:15:15.401Z,1006.96
2018-01-08T04:16:25.462Z,1006.94
2018-01-08T04:17:35.283Z,1006.91
2018-01-08T04:18:45.087Z,1006.9
2018-01-08T04:19:55.542Z,1006.89
2018-01-08T04:21:05.421Z,1006.87
2018-01-08T04:22:15.231Z,1006.91
2018-01-08T04:23:25.271Z,1006.82
2018-01-08T04:24:35.321Z,1006.9
2018-01-08T04:25:45.370Z,1006.92
2018-01-08T04:26:54.742Z,1006.99
2018-01-08T04:28:04.806Z,1007
2018-01-08T04:29:15.641Z,1006.97
2018-01-08T04:30:25.704Z,1006.98
2018-01-08T04:31:35.496Z,1007
2018-01-08T04:32:45.611Z,1007.02
2018-01-08T04:33:55.158Z,1007
2018-01-08T04:35:05.213Z,1006.99
2018-01-08T04:36:15.265Z,1006.96
2018-01-08T04:37:25.307Z,1007
2018-01-08T04:38:35.349Z,1006.95
2018-01-08T04:39:45.403Z,1006.96
2018-01-08T04:40:55.464Z,1006.99
2018-01-08T04:42:05.003Z,1006.95
2018-01-08T04:43:14.807Z,1006.97
2018-01-08T04:44:24.861Z,1006.98
2018-01-08T04:45:34.937Z,1007
2018-01-08T04:46:45.003Z,1007.01
2018-01-08T04:47:54.800Z,1007.04
2018-01-08T04:49:04.861Z,1007.04
2018-01-08T04:50:14.712Z,1007.04
2018-01-08T04:51:24.765Z,1007.06
2018-01-08T04:52:34.311Z,1007.07
2018-01-08T04:53:44.099Z,1007.11
2018-01-08T04:54:53.620Z,1007.12
2018-01-08T04:56:03.413Z,1007.16
2018-01-08T04:57:13.469Z,1007.2
2018-01-08T04:58:23.268Z,1007.21
2018-01-08T04:59:33.325Z,1007.28
2018-01-08T05:00:43.209Z,1007.24
2018-01-08T05:01:53.265Z,1007.21
2018-01-08T05:03:03.324Z,1007.1
2018-01-08T05:04:13.380Z,1007.13
2018-01-08T05:05:23.482Z,1007.15
2018-01-08T05:06:33.533Z,1007.14
2018-01-08T05:07:43.068Z,1007.16
2018-01-08T05:08:53.132Z,1007.16
2018-01-08T05:10:02.913Z,1007.19
2018-01-08T05:11:12.977Z,1007.15
2018-01-08T05:12:22.511Z,1007.15
2018-01-08T05:13:32.357Z,1007.18
2018-01-08T05:14:42.410Z,1007.22
2018-01-08T05:15:52.467Z,1007.27
2018-01-08T05:17:02.299Z,1007.32
2018-01-08T05:18:12.357Z,1007.31
2018-01-08T05:19:22.464Z,1007.33
2018-01-08T05:20:32.513Z,1007.32
2018-01-08T05:21:42.300Z,1007.4
2018-01-08T05:22:52.176Z,1007.34
2018-01-08T05:24:02.279Z,1007.39
2018-01-08T05:25:12.380Z,1007.38
2018-01-08T05:26:22.166Z,1007.36
2018-01-08T05:27:31.960Z,1007.34
2018-01-08T05:28:42.051Z,1007.32
2018-01-08T05:29:52.112Z,1007.31
2018-01-08T05:31:02.170Z,1007.3
2018-01-08T05:32:11.947Z,1007.32
2018-01-08T05:33:21.991Z,1007.38
2018-01-08T05:34:31.785Z,1007.42
2018-01-08T05:35:41.837Z,1007.39
2018-01-08T05:36:51.913Z,1007.44
2018-01-08T05:38:01.722Z,1007.37
2018-01-08T05:39:11.530Z,1007.4
2018-01-08T05:40:21.578Z,1007.41
2018-01-08T05:41:31.704Z,1007.36
2018-01-08T05:42:41.529Z,1007.37
2018-01-08T05:43:51.577Z,1007.37
2018-01-08T05:45:01.376Z,1007.38
2018-01-08T05:46:11.431Z,1007.39
2018-01-08T05:47:21.484Z,1007.38
2018-01-08T05:48:31.271Z,1007.43
2018-01-08T05:49:41.090Z,1007.44
2018-01-08T05:50:50.614Z,1007.44
2018-01-08T05:52:00.413Z,1007.46
2018-01-08T05:53:10.467Z,1007.49
2018-01-08T05:54:20.566Z,1007.51
2018-01-08T05:55:30.650Z,1007.53
2018-01-08T05:56:40.703Z,1007.51
2018-01-08T05:57:50.750Z,1007.54
2018-01-08T05:59:00.543Z,1007.6
2018-01-08T06:00:10.608Z,1007.65
2018-01-08T06:01:20.694Z,1007.7
2018-01-08T06:02:30.741Z,1007.69
2018-01-08T06:03:40.537Z,1007.73
2018-01-08T06:04:50.596Z,1007.7
2018-01-08T06:06:00.778Z,1007.7
2018-01-08T06:07:10.812Z,1007.75
2018-01-08T06:08:20.879Z,1007.73
2018-01-08T06:09:32.223Z,1007.77
2018-01-08T06:10:42.019Z,1007.76
2018-01-08T06:11:52.183Z,1007.76
2018-01-08T06:13:02.250Z,1007.74
2018-01-08T06:14:12.037Z,1007.75
2018-01-08T06:15:21.827Z,1007.75
2018-01-08T06:16:31.622Z,1007.74
2018-01-08T06:17:41.783Z,1007.73
2018-01-08T06:18:51.311Z,1007.76
2018-01-08T06:20:01.144Z,1007.82
2018-01-08T06:21:10.689Z,1007.83
2018-01-08T06:22:20.751Z,1007.86
2018-01-08T06:23:30.302Z,1007.88
2018-01-08T06:24:40.364Z,1007.79
2018-01-08T06:25:50.425Z,1007.81
2018-01-08T06:26:59.965Z,1007.78
2018-01-08T06:28:09.759Z,1007.76
2018-01-08T06:29:19.918Z,1007.81
2018-01-08T06:30:29.733Z,1007.75
2018-01-08T06:31:39.521Z,1007.75
2018-01-08T06:32:49.588Z,1007.74
2018-01-08T06:33:59.684Z,1007.74
2018-01-08T06:35:09.485Z,1007.77
2018-01-08T06:36:19.537Z,1007.74
2018-01-08T06:37:29.639Z,1007.75
2018-01-08T06:38:39.694Z,1007.75
2018-01-08T06:39:49.486Z,1007.79
2018-01-08T06:40:59.554Z,1007.85
2018-01-08T06:42:09.593Z,1007.84
2018-01-08T06:43:19.645Z,1007.86
2018-01-08T06:44:29.431Z,1007.89
2018-01-08T06:45:39.231Z,1007.87
2018-01-08T06:46:49.331Z,1007.92
2018-01-08T06:47:59.117Z,1007.96
2018-01-08T06:49:09.261Z,1007.91
2018-01-08T06:50:19.044Z,1007.93
2018-01-08T06:51:29.106Z,1007.93
2018-01-08T06:52:39.169Z,1007.94
2018-01-08T06:53:50.180Z,1007.97
2018-01-08T06:54:59.975Z,1008.02
2018-01-08T06:56:09.779Z,1008.05
2018-01-08T06:57:19.826Z,1008.13
2018-01-08T06:58:29.931Z,1008.13
2018-01-08T06:59:40.014Z,1008.15
2018-01-08T07:00:51.158Z,1008.15
2018-01-08T07:02:01.218Z,1008.15
2018-01-08T07:03:10.754Z,1008.14
2018-01-08T07:04:20.344Z,1008.13
2018-01-08T07:05:30.386Z,1008.12
2018-01-08T07:06:40.431Z,1008.16
2018-01-08T07:07:50.465Z,1008.18
2018-01-08T07:09:00.264Z,1008.23
2018-01-08T07:10:10.394Z,1008.21
2018-01-08T07:11:20.194Z,1008.23
2018-01-08T07:12:30.262Z,1008.26
2018-01-08T07:13:40.329Z,1008.27
2018-01-08T07:14:50.131Z,1008.3
2018-01-08T07:15:59.923Z,1008.31
2018-01-08T07:17:09.723Z,1008.34
2018-01-08T07:18:19.519Z,1008.37
2018-01-08T07:19:29.578Z,1008.37
2018-01-08T07:20:39.371Z,1008.39
2018-01-08T07:21:49.168Z,1008.43
2018-01-08T07:22:58.958Z,1008.38
2018-01-08T07:24:08.752Z,1008.41
2018-01-08T07:25:18.551Z,1008.39
2018-01-08T07:26:28.348Z,1008.4
2018-01-08T07:27:38.162Z,1008.39
2018-01-08T07:28:48.221Z,1008.35
2018-01-08T07:29:58.013Z,1008.37
2018-01-08T07:31:07.829Z,1008.38
2018-01-08T07:32:17.879Z,1008.36
2018-01-08T07:33:27.973Z,1008.38
2018-01-08T07:34:37.772Z,1008.38
2018-01-08T07:35:47.824Z,1008.39
2018-01-08T07:36:57.877Z,1008.36
2018-01-08T07:38:07.930Z,1008.4
2018-01-08T07:39:17.975Z,1008.41
2018-01-08T07:40:28.044Z,1008.42
2018-01-08T07:41:38.118Z,1008.39
2018-01-08T07:42:48.226Z,1008.4
2018-01-08T07:43:58.267Z,1008.45
2018-01-08T07:45:09.423Z,1008.43
2018-01-08T07:46:19.491Z,1008.44
2018-01-08T07:47:29.542Z,1008.42
2018-01-08T07:48:39.331Z,1008.46
2018-01-08T07:49:49.122Z,1008.41
2018-01-08T07:50:58.910Z,1008.45
2018-01-08T07:52:08.695Z,1008.45
2018-01-08T07:53:18.503Z,1008.44
2018-01-08T07:54:28.571Z,1008.49
2018-01-08T07:55:38.661Z,1008.48
2018-01-08T07:56:48.715Z,1008.49
2018-01-08T07:57:58.770Z,1008.48
2018-01-08T07:59:08.573Z,1008.48
2018-01-08T08:00:18.628Z,1008.52
2018-01-08T08:01:28.421Z,1008.55
2018-01-08T08:02:37.943Z,1008.53
2018-01-08T08:03:47.996Z,1008.57
2018-01-08T08:04:58.087Z,1008.59
2018-01-08T08:06:08.172Z,1008.56
2018-01-08T08:07:18.220Z,1008.57
2018-01-08T08:08:28.397Z,1008.61
2018-01-08T08:09:38.195Z,1008.58
2018-01-08T08:10:48.256Z,1008.58
2018-01-08T08:11:58.318Z,1008.63
2018-01-08T08:13:08.391Z,1008.61
2018-01-08T08:14:18.549Z,1008.6
2018-01-08T08:15:28.611Z,1008.59
2018-01-08T08:16:38.664Z,1008.54
2018-01-08T08:17:48.459Z,1008.51
2018-01-08T08:18:58.564Z,1008.53
2018-01-08T08:20:08.628Z,1008.53
2018-01-08T08:21:18.700Z,1008.54
2018-01-08T08:22:28.762Z,1008.6
2018-01-08T08:23:39.549Z,1008.58
2018-01-08T08:24:49.095Z,1008.57
2018-01-08T08:25:58.889Z,1008.61
2018-01-08T08:27:08.953Z,1008.61
2018-01-08T08:28:19.131Z,1008.63
2018-01-08T08:29:29.199Z,1008.66
2018-01-08T08:30:39.302Z,1008.61
2018-01-08T08:31:49.352Z,1008.62
2018-01-08T08:32:59.398Z,1008.64
2018-01-08T08:34:09.501Z,1008.69
2018-01-08T08:35:19.291Z,1008.73
2018-01-08T08:36:29.398Z,1008.71
2018-01-08T08:37:39.447Z,1008.69
2018-01-08T08:38:49.505Z,1008.68
2018-01-08T08:39:59.548Z,1008.7
2018-01-08T08:41:09.640Z,1008.7
2018-01-08T08:42:19.708Z,1008.63
2018-01-08T08:43:29.776Z,1008.67
2018-01-08T08:44:39.830Z,1008.62
2018-01-08T08:45:49.895Z,1008.62
2018-01-08T08:46:59.683Z,1008.62
2018-01-08T08:48:09.471Z,1008.59
2018-01-08T08:49:18.998Z,1008.59
2018-01-08T08:50:29.054Z,1008.6
2018-01-08T08:51:39.091Z,1008.62
2018-01-08T08:52:48.604Z,1008.61
2018-01-08T08:53:58.435Z,1008.6
2018-01-08T08:55:08.694Z,1008.61
2018-01-08T08:56:18.488Z,1008.61
2018-01-08T08:57:28.280Z,1008.59
2018-01-08T08:58:38.339Z,1008.57
2018-01-08T08:59:47.863Z,1008.61
2018-01-08T09:00:58.716Z,1008.61
2018-01-08T09:02:08.776Z,1008.6
2018-01-08T09:03:18.855Z,1008.57
2018-01-08T09:04:28.904Z,1008.54
2018-01-08T09:05:38.681Z,1008.51
2018-01-08T09:06:48.490Z,1008.52
2018-01-08T09:07:58.288Z,1008.51
2018-01-08T09:09:08.338Z,1008.51
2018-01-08T09:10:18.451Z,1008.51
2018-01-08T09:11:28.567Z,1008.49
2018-01-08T09:12:38.617Z,1008.51
2018-01-08T09:13:48.692Z,1008.54
2018-01-08T09:14:59.745Z,1008.53
2018-01-08T09:16:09.826Z,1008.55
2018-01-08T09:17:19.614Z,1008.59
2018-01-08T09:18:29.670Z,1008.55
2018-01-08T09:19:39.728Z,1008.56
2018-01-08T09:20:49.794Z,1008.56
2018-01-08T09:21:59.844Z,1008.58
2018-01-08T09:23:09.912Z,1008.61
2018-01-08T09:24:20.011Z,1008.61
2018-01-08T09:25:30.072Z,1008.62
2018-01-08T09:26:39.878Z,1008.6
2018-01-08T09:27:49.673Z,1008.65
2018-01-08T09:28:59.715Z,1008.59
2018-01-08T09:30:09.569Z,1008.56
2018-01-08T09:31:19.375Z,1008.58
2018-01-08T09:32:29.433Z,1008.55
2018-01-08T09:33:39.504Z,1008.52
2018-01-08T09:34:49.566Z,1008.49
2018-01-08T09:35:59.408Z,1008.51
2018-01-08T09:37:09.480Z,1008.43
2018-01-08T09:38:19.278Z,1008.45
2018-01-08T09:39:29.079Z,1008.41
2018-01-08T09:40:38.923Z,1008.38
2018-01-08T09:41:48.980Z,1008.32
2018-01-08T09:42:59.142Z,1008.31
2018-01-08T09:44:10.284Z,1008.28
2018-01-08T09:45:20.593Z,1008.34
2018-01-08T09:46:30.653Z,1008.35
2018-01-08T09:47:40.505Z,1008.4
2018-01-08T09:48:50.577Z,1008.41
2018-01-08T09:50:00.662Z,1008.37
2018-01-08T09:51:10.756Z,1008.39
2018-01-08T09:52:20.350Z,1008.43
2018-01-08T09:53:30.224Z,1008.45
2018-01-08T09:54:40.030Z,1008.42
2018-01-08T09:55:50.107Z,1008.42
2018-01-08T09:57:00.186Z,1008.45
2018-01-08T09:58:10.059Z,1008.47
2018-01-08T09:59:20.205Z,1008.42
2018-01-08T10:00:30.347Z,1008.43
2018-01-08T10:01:41.699Z,1008.44
2018-01-08T10:02:51.812Z,1008.4
2018-01-08T10:04:01.899Z,1008.42
2018-01-08T10:05:11.732Z,1008.37
2018-01-08T10:06:21.804Z,1008.34
2018-01-08T10:07:31.901Z,1008.33
2018-01-08T10:08:41.745Z,1008.37
2018-01-08T10:09:51.608Z,1008.38
2018-01-08T10:11:01.985Z,1008.44
2018-01-08T10:12:11.900Z,1008.47
2018-01-08T10:13:22.027Z,1008.41
2018-01-08T10:14:32.184Z,1008.41
2018-01-08T10:15:42.123Z,1008.43
2018-01-08T10:16:51.956Z,1008.4
2018-01-08T10:18:03.122Z,1008.41
2018-01-08T10:19:13.642Z,1008.43
2018-01-08T10:20:23.450Z,1008.44
2018-01-08T10:21:33.278Z,1008.43
2018-01-08T10:22:43.351Z,1008.44
2018-01-08T10:23:53.441Z,1008.45
2018-01-08T10:25:03.500Z,1008.45
2018-01-08T10:26:13.309Z,1008.45
2018-01-08T10:27:23.403Z,1008.49
2018-01-08T10:28:33.505Z,1008.49
2018-01-08T10:29:43.603Z,1008.46
2018-01-08T10:30:53.507Z,1008.48
2018-01-08T10:32:03.590Z,1008.46
2018-01-08T10:33:14.770Z,1008.46
2018-01-08T10:34:24.875Z,1008.46
2018-01-08T10:35:34.969Z,1008.42
2018-01-08T10:36:45.076Z,1008.37
2018-01-08T10:37:55.156Z,1008.42
2018-01-08T10:39:05.024Z,1008.38
2018-01-08T10:40:15.094Z,1008.41
2018-01-08T10:41:25.246Z,1008.44
2018-01-08T10:42:35.330Z,1008.38
2018-01-08T10:43:45.220Z,1008.37
2018-01-08T10:44:55.352Z,1008.37
2018-01-08T10:46:05.467Z,1008.35
2018-01-08T10:47:15.746Z,1008.33
2018-01-08T10:48:26.079Z,1008.33
2018-01-08T10:49:37.307Z,1008.37
2018-01-08T10:50:47.457Z,1008.36
2018-01-08T10:51:57.536Z,1008.34
2018-01-08T10:53:07.634Z,1008.29
2018-01-08T10:54:17.458Z,1008.31
2018-01-08T10:55:27.019Z,1008.33
2018-01-08T10:56:37.310Z,1008.35
2018-01-08T10:57:47.431Z,1008.31
2018-01-08T10:58:57.660Z,1008.34
2018-01-08T11:00:09.307Z,1008.36
2018-01-08T11:01:19.407Z,1008.35
2018-01-08T11:02:29.278Z,1008.32
2018-01-08T11:03:39.420Z,1008.28
2018-01-08T11:04:49.506Z,1008.24
2018-01-08T11:05:59.699Z,1008.23
2018-01-08T11:07:09.524Z,1008.25
2018-01-08T11:08:19.634Z,1008.22
2018-01-08T11:09:29.700Z,1008.2
2018-01-08T11:10:39.746Z,1008.19
2018-01-08T11:11:49.830Z,1008.16
2018-01-08T11:12:59.646Z,1008.15
2018-01-08T11:14:09.494Z,1008.18
2018-01-08T11:15:19.626Z,1008.18
2018-01-08T11:16:29.714Z,1008.18
2018-01-08T11:17:39.509Z,1008.16
2018-01-08T11:18:49.676Z,1008.12
2018-01-08T11:19:59.249Z,1008.11
2018-01-08T11:21:09.322Z,1008.04
2018-01-08T11:22:19.398Z,1008.07
2018-01-08T11:23:29.623Z,1008.02
2018-01-08T11:24:39.686Z,1008.05
2018-01-08T11:25:49.815Z,1008.03
2018-01-08T11:26:59.652Z,1008.01
2018-01-08T11:28:09.758Z,1008.03
2018-01-08T11:29:21.180Z,1008.01
2018-01-08T11:30:31.235Z,1008
2018-01-08T11:31:41.333Z,1007.98
2018-01-08T11:32:51.415Z,1007.95
2018-01-08T11:34:01.482Z,1007.94
2018-01-08T11:35:11.611Z,1007.93
2018-01-08T11:36:21.752Z,1007.93
2018-01-08T11:37:31.609Z,1007.92
2018-01-08T11:38:41.677Z,1007.89
2018-01-08T11:39:51.793Z,1007.85
2018-01-08T11:41:01.888Z,1007.85
2018-01-08T11:42:11.758Z,1007.86
2018-01-08T11:43:21.920Z,1007.88
2018-01-08T11:44:31.982Z,1007.93
2018-01-08T11:45:42.057Z,1007.88
2018-01-08T11:46:52.129Z,1007.92
2018-01-08T11:48:02.202Z,1007.91
2018-01-08T11:49:12.696Z,1007.9
2018-01-08T11:50:22.759Z,1007.89
2018-01-08T11:51:32.921Z,1007.92
2018-01-08T11:52:43.065Z,1007.91
2018-01-08T11:53:53.162Z,1007.84
2018-01-08T11:55:03.277Z,1007.83
2018-01-08T11:56:13.156Z,1007.83
2018-01-08T11:57:23.228Z,1007.73
2018-01-08T11:58:33.298Z,1007.74
2018-01-08T11:59:43.408Z,1007.74
2018-01-08T12:00:53.585Z,1007.73
2018-01-08T12:02:03.665Z,1007.72
2018-01-08T12:03:13.502Z,1007.78
2018-01-08T12:04:23.342Z,1007.75
2018-01-08T12:05:33.409Z,1007.72
2018-01-08T12:06:43.216Z,1007.67
2018-01-08T12:07:53.428Z,1007.66
2018-01-08T12:09:03.507Z,1007.65
2018-01-08T12:10:13.584Z,1007.59
2018-01-08T12:11:23.431Z,1007.65
2018-01-08T12:12:33.537Z,1007.64
2018-01-08T12:13:43.651Z,1007.6
2018-01-08T12:14:53.773Z,1007.63
2018-01-08T12:16:03.878Z,1007.68
2018-01-08T12:17:13.941Z,1007.68
2018-01-08T12:18:23.746Z,1007.66
2018-01-08T12:19:33.844Z,1007.69
2018-01-08T12:20:45.343Z,1007.69
2018-01-08T12:21:55.165Z,1007.7
2018-01-08T12:23:05.359Z,1007.67
2018-01-08T12:24:15.474Z,1007.64
2018-01-08T12:25:25.629Z,1007.62
2018-01-08T12:26:35.774Z,1007.68
2018-01-08T12:27:45.602Z,1007.67
2018-01-08T12:28:55.703Z,1007.7
2018-01-08T12:30:05.844Z,1007.65
2018-01-08T12:31:15.938Z,1007.65
2018-01-08T12:32:26.027Z,1007.68
2018-01-08T12:33:35.863Z,1007.65
2018-01-08T12:34:45.955Z,1007.66
2018-01-08T12:35:56.067Z,1007.64
2018-01-08T12:37:06.185Z,1007.63
2018-01-08T12:38:16.009Z,1007.65
2018-01-08T12:39:26.094Z,1007.66
2018-01-08T12:40:36.182Z,1007.63
2018-01-08T12:41:45.774Z,1007.59
2018-01-08T12:42:55.383Z,1007.58
2018-01-08T12:44:05.518Z,1007.57
2018-01-08T12:45:15.597Z,1007.56
2018-01-08T12:46:25.412Z,1007.59
2018-01-08T12:47:35.474Z,1007.58
2018-01-08T12:48:45.299Z,1007.57
2018-01-08T12:49:55.435Z,1007.58
2018-01-08T12:51:05.546Z,1007.61
2018-01-08T12:52:15.617Z,1007.62
2018-01-08T12:53:25.939Z,1007.64
2018-01-08T12:54:35.754Z,1007.64
2018-01-08T12:55:45.886Z,1007.62
2018-01-08T12:56:55.694Z,1007.63
2018-01-08T12:58:05.761Z,1007.61
2018-01-08T12:59:15.773Z,1007.64
2018-01-08T13:00:25.874Z,1007.61
2018-01-08T13:01:35.967Z,1007.58
2018-01-08T13:02:45.759Z,1007.56
2018-01-08T13:03:55.863Z,1007.56
2018-01-08T13:05:05.756Z,1007.57
2018-01-08T13:06:15.836Z,1007.54
2018-01-08T13:07:25.938Z,1007.52
2018-01-08T13:08:36.021Z,1007.49
2018-01-08T13:09:45.824Z,1007.53
2018-01-08T13:10:55.689Z,1007.49
2018-01-08T13:12:05.499Z,1007.48
2018-01-08T13:13:15.438Z,1007.44
2018-01-08T13:14:25.510Z,1007.45
2018-01-08T13:15:35.602Z,1007.47
2018-01-08T13:16:45.416Z,1007.49
2018-01-08T13:17:55.232Z,1007.54
2018-01-08T13:19:05.046Z,1007.54
2018-01-08T13:20:15.157Z,1007.61
2018-01-08T13:21:25.226Z,1007.6
2018-01-08T13:22:35.320Z,1007.58
2018-01-08T13:23:46.322Z,1007.56
2018-01-08T13:24:56.176Z,1007.59
2018-01-08T13:26:06.327Z,1007.51
2018-01-08T13:27:16.147Z,1007.58
2018-01-08T13:28:26.294Z,1007.51
2018-01-08T13:29:36.378Z,1007.54
2018-01-08T13:30:46.468Z,1007.53
2018-01-08T13:31:56.548Z,1007.53
2018-01-08T13:33:07.249Z,1007.52
2018-01-08T13:34:17.650Z,1007.49
2018-01-08T13:35:27.770Z,1007.48
2018-01-08T13:36:37.848Z,1007.5
2018-01-08T13:37:47.980Z,1007.53
2018-01-08T13:38:58.282Z,1007.55
2018-01-08T13:40:08.500Z,1007.54
2018-01-08T13:41:18.612Z,1007.54
2018-01-08T13:42:28.430Z,1007.58
2018-01-08T13:43:38.260Z,1007.52
2018-01-08T13:44:48.313Z,1007.54
2018-01-08T13:45:58.417Z,1007.56
2018-01-08T13:47:08.237Z,1007.62
2018-01-08T13:48:18.317Z,1007.6
2018-01-08T13:49:28.178Z,1007.6
2018-01-08T13:50:38.277Z,1007.55
2018-01-08T13:51:48.094Z,1007.56
2018-01-08T13:52:58.270Z,1007.58
2018-01-08T13:54:08.345Z,1007.57
2018-01-08T13:55:18.173Z,1007.58
2018-01-08T13:56:28.254Z,1007.57
2018-01-08T13:57:38.401Z,1007.57
2018-01-08T13:58:48.574Z,1007.55
2018-01-08T13:59:58.374Z,1007.58
2018-01-08T14:01:08.489Z,1007.58
2018-01-08T14:02:18.331Z,1007.6
2018-01-08T14:03:28.191Z,1007.6
2018-01-08T14:04:38.312Z,1007.61
2018-01-08T14:05:48.129Z,1007.65
2018-01-08T14:06:58.196Z,1007.61
2018-01-08T14:08:08.310Z,1007.7
2018-01-08T14:09:18.403Z,1007.71
2018-01-08T14:10:28.518Z,1007.71
2018-01-08T14:11:38.375Z,1007.71
2018-01-08T14:12:48.484Z,1007.78
2018-01-08T14:13:58.635Z,1007.74
2018-01-08T14:15:08.782Z,1007.87
2018-01-08T14:16:18.904Z,1007.86
2018-01-08T14:17:28.721Z,1007.88
2018-01-08T14:18:38.428Z,1007.86
2018-01-08T14:19:48.364Z,1007.85
2018-01-08T14:20:58.462Z,1007.79
2018-01-08T14:22:08.737Z,1007.82
2018-01-08T14:23:18.637Z,1007.78
2018-01-08T14:24:28.731Z,1007.8
2018-01-08T14:25:38.895Z,1007.83
2018-01-08T14:26:49.037Z,1007.82
2018-01-08T14:27:59.123Z,1007.79
2018-01-08T14:29:09.235Z,1007.82
2018-01-08T14:30:20.413Z,1007.77
2018-01-08T14:31:30.879Z,1007.78
2018-01-08T14:32:40.990Z,1007.8
2018-01-08T14:33:50.843Z,1007.81
2018-01-08T14:35:00.909Z,1007.84
2018-01-08T14:36:11.075Z,1007.86
2018-01-08T14:37:21.194Z,1007.86
2018-01-08T14:38:31.495Z,1007.91
2018-01-08T14:39:41.215Z,1007.87
2018-01-08T14:40:51.330Z,1007.9